createdAt,value
2022-07-28T11:35:20.553Z,45.97
2022-07-28T11:38:13.488Z,45.90
2022-07-28T11:40:44.678Z,45.79
2022-07-28T11:43:36.236Z,45.74
2022-07-28T11:46:37.382Z,45.58
2022-07-28T11:49:21.102Z,45.92
2022-07-28T11:52:20.938Z,45.62
2022-07-28T11:54:56.185Z,45.48
2022-07-28T11:57:28.539Z,45.63
2022-07-28T12:00:01.158Z,45.67
2022-07-28T12:02:31.571Z,45.80
2022-07-28T12:05:02.505Z,45.91
2022-07-28T12:07:35.566Z,45.82
2022-07-28T12:10:03.835Z,46.36
2022-07-28T12:12:33.001Z,46.13
2022-07-28T12:15:06.648Z,46.11
2022-07-28T12:17:35.254Z,46.27
2022-07-28T12:20:05.557Z,46.12
2022-07-28T12:22:40.929Z,46.41
2022-07-28T12:25:13.598Z,46.24
2022-07-28T12:27:44.800Z,46.18
2022-07-28T12:30:14.756Z,46.42
2022-07-28T12:32:47.638Z,45.98
2022-07-28T12:35:15.834Z,46.08
2022-07-28T12:37:47.972Z,46.21
2022-07-28T12:40:16.919Z,46.12
2022-07-28T12:42:45.499Z,45.65
2022-07-28T12:45:20.031Z,45.60
2022-07-28T12:47:48.005Z,45.93
2022-07-28T12:50:16.633Z,45.79
2022-07-28T12:53:02.137Z,45.89
2022-07-28T12:55:30.745Z,45.85
2022-07-28T12:57:58.841Z,45.83
2022-07-28T13:00:31.196Z,45.79
2022-07-28T13:02:59.912Z,45.79
2022-07-28T13:05:32.525Z,45.53
2022-07-28T13:08:05.680Z,45.70
2022-07-28T13:10:33.966Z,45.34
2022-07-28T13:13:03.946Z,45.42
2022-07-28T13:15:31.929Z,45.18
2022-07-28T13:17:59.924Z,44.95
2022-07-28T13:20:28.019Z,45.14
2022-07-28T13:22:57.408Z,45.18
2022-07-28T13:25:26.868Z,44.84
2022-07-28T13:27:55.296Z,45.21
2022-07-28T13:30:24.405Z,45.01
2022-07-28T13:32:54.870Z,44.85
2022-07-28T13:35:22.995Z,45.15
2022-07-28T13:37:51.132Z,45.21
2022-07-28T13:40:19.094Z,44.67
2022-07-28T13:42:52.772Z,45.04
2022-07-28T13:45:22.163Z,44.65
2022-07-28T13:47:51.887Z,44.70
2022-07-28T13:50:20.527Z,44.98
2022-07-28T13:52:48.684Z,44.88
2022-07-28T13:55:19.584Z,44.60
2022-07-28T13:57:49.913Z,44.92
2022-07-28T14:00:19.436Z,44.66
2022-07-28T14:02:50.925Z,44.74
2022-07-28T14:05:19.090Z,44.49
2022-07-28T14:07:48.785Z,44.35
2022-07-28T14:10:17.287Z,44.28
2022-07-28T14:12:46.268Z,44.00
2022-07-28T14:15:16.041Z,43.73
2022-07-28T14:17:47.063Z,44.11
2022-07-28T14:20:15.225Z,44.21
2022-07-28T14:22:43.383Z,44.25
2022-07-28T14:25:11.769Z,43.11
2022-07-28T14:27:47.695Z,40.80
2022-07-28T14:30:17.132Z,38.47
2022-07-28T14:32:45.071Z,36.27
2022-07-28T14:35:12.974Z,35.41
2022-07-28T14:38:04.853Z,34.46
2022-07-28T14:40:29.077Z,33.37
2022-07-28T14:42:57.168Z,32.58
2022-07-28T14:45:26.472Z,31.89
2022-07-28T14:47:55.416Z,32.12
2022-07-28T14:50:23.481Z,31.57
2022-07-28T14:52:51.640Z,31.29
2022-07-28T14:55:19.618Z,31.11
2022-07-28T14:57:54.421Z,31.21
2022-07-28T15:00:23.556Z,31.68
2022-07-28T15:02:53.686Z,32.20
2022-07-28T15:05:21.821Z,33.40
2022-07-28T15:07:51.970Z,35.99
2022-07-28T15:10:20.385Z,37.97
2022-07-28T15:12:48.348Z,39.30
2022-07-28T15:15:16.698Z,40.35
2022-07-28T15:17:47.739Z,40.76
2022-07-28T15:20:18.180Z,41.07
2022-07-28T15:22:46.214Z,41.24
2022-07-28T15:25:17.385Z,41.51
2022-07-28T15:27:45.890Z,41.52
2022-07-28T15:30:14.287Z,41.51
2022-07-28T15:32:54.578Z,41.67
2022-07-28T15:35:26.649Z,42.07
2022-07-28T15:37:54.608Z,42.17
2022-07-28T15:40:22.953Z,42.80
2022-07-28T15:42:51.311Z,42.56
2022-07-28T15:45:19.283Z,42.90
2022-07-28T15:47:48.103Z,42.76
2022-07-28T15:50:16.055Z,43.23
2022-07-28T15:52:45.447Z,42.86
2022-07-28T15:55:13.486Z,43.00
2022-07-28T15:57:41.446Z,43.42
2022-07-28T16:00:10.126Z,43.38
2022-07-28T16:02:38.209Z,43.03
2022-07-28T16:05:06.821Z,43.67
2022-07-28T16:07:35.754Z,43.63
2022-07-28T16:10:05.661Z,43.34
2022-07-28T16:12:33.899Z,43.96
2022-07-28T16:15:01.890Z,43.48
2022-07-28T16:17:29.784Z,43.91
2022-07-28T16:20:02.092Z,43.91
2022-07-28T16:22:30.712Z,44.02
2022-07-28T16:24:58.712Z,44.22
2022-07-28T16:27:28.247Z,43.56
2022-07-28T16:29:56.184Z,43.68
2022-07-28T16:32:24.672Z,44.11
2022-07-28T16:34:53.907Z,44.27
2022-07-28T16:37:21.871Z,43.74
2022-07-28T16:39:49.853Z,44.22
2022-07-28T16:42:18.043Z,44.38
2022-07-28T16:44:50.682Z,43.98
2022-07-28T16:47:18.602Z,44.40
2022-07-28T16:49:46.580Z,44.39
2022-07-28T16:52:14.895Z,44.09
2022-07-28T16:54:42.958Z,44.03
2022-07-28T16:57:10.943Z,44.41
2022-07-28T16:59:47.947Z,44.08
2022-07-28T17:02:18.585Z,44.49
2022-07-28T17:04:46.870Z,44.36
2022-07-28T17:07:14.834Z,44.27
2022-07-28T17:09:42.959Z,44.38
2022-07-28T17:12:11.069Z,44.89
2022-07-28T17:14:39.030Z,44.61
2022-07-28T17:17:06.993Z,45.03
2022-07-28T17:19:38.143Z,44.66
2022-07-28T17:22:08.864Z,44.75
2022-07-28T17:24:36.813Z,44.69
2022-07-28T17:30:01.541Z,44.39
2022-07-28T17:32:29.516Z,44.89
2022-07-28T17:34:58.793Z,44.36
2022-07-28T17:37:27.287Z,43.77
2022-07-28T17:39:55.226Z,44.11
2022-07-28T17:42:23.204Z,44.30
2022-07-28T17:44:53.689Z,43.83
2022-07-28T17:47:24.057Z,43.84
2022-07-28T17:50:09.332Z,44.23
2022-07-28T17:52:37.416Z,44.37
2022-07-28T17:55:24.113Z,44.30
2022-07-28T17:57:52.313Z,43.96
2022-07-28T18:00:22.027Z,43.93
2022-07-28T18:02:50.686Z,44.48
2022-07-28T18:05:20.175Z,44.41
2022-07-28T18:07:53.705Z,44.02
2022-07-28T18:10:25.064Z,44.22
2022-07-28T18:12:55.092Z,44.53
2022-07-28T18:15:22.982Z,44.30
2022-07-28T18:17:54.816Z,44.56
2022-07-28T18:20:25.389Z,44.21
2022-07-28T18:22:53.479Z,44.71
2022-07-28T18:25:21.465Z,44.63
2022-07-28T18:27:49.411Z,44.56
2022-07-28T18:30:18.096Z,44.47
2022-07-28T18:32:46.152Z,44.71
2022-07-28T18:35:14.119Z,44.94
2022-07-28T18:37:45.977Z,44.84
2022-07-28T18:40:14.370Z,44.72
2022-07-28T18:42:42.346Z,44.60
2022-07-28T18:45:11.267Z,44.62
2022-07-28T18:47:46.552Z,44.63
2022-07-28T18:50:30.576Z,45.35
2022-07-28T18:53:01.353Z,45.29
2022-07-28T18:55:29.321Z,45.61
2022-07-28T18:57:57.300Z,45.99
2022-07-28T19:00:25.411Z,45.69
2022-07-28T19:02:53.506Z,45.60
2022-07-28T19:05:21.574Z,45.35
2022-07-28T19:07:50.115Z,45.96
2022-07-28T19:10:19.581Z,45.81
2022-07-28T19:12:48.193Z,46.06
2022-07-28T19:15:16.212Z,46.24
2022-07-28T19:17:44.242Z,46.44
2022-07-28T19:20:12.718Z,46.05
2022-07-28T19:22:40.731Z,46.19
2022-07-28T19:25:09.312Z,46.13
2022-07-28T19:27:38.648Z,46.33
2022-07-28T19:30:07.396Z,46.95
2022-07-28T19:32:35.385Z,46.60
2022-07-28T19:35:03.876Z,47.04
2022-07-28T19:37:31.874Z,47.05
2022-07-28T19:39:59.821Z,47.21
2022-07-28T19:42:29.613Z,47.87
2022-07-28T19:44:58.905Z,47.75
2022-07-28T19:47:26.886Z,48.24
2022-07-28T19:49:54.799Z,48.73
2022-07-28T19:52:24.026Z,48.99
2022-07-28T19:54:52.467Z,49.74
2022-07-28T19:57:23.313Z,49.70
2022-07-28T19:59:51.002Z,49.70
2022-07-28T20:02:20.391Z,49.83
2022-07-28T20:04:48.466Z,50.25
2022-07-28T20:07:16.542Z,50.28
2022-07-28T20:09:44.466Z,50.39
2022-07-28T20:12:12.462Z,50.53
2022-07-28T20:14:40.409Z,50.39
2022-07-28T20:17:08.411Z,50.70
2022-07-28T20:19:37.815Z,50.75
2022-07-28T20:22:05.772Z,50.71
2022-07-28T20:24:33.683Z,50.86
2022-07-28T20:27:03.742Z,51.02
2022-07-28T20:29:31.636Z,51.10
2022-07-28T20:31:59.508Z,51.03
2022-07-28T20:34:27.842Z,51.42
2022-07-28T20:36:57.131Z,51.53
2022-07-28T20:39:44.014Z,51.35
2022-07-28T20:42:14.307Z,51.29
2022-07-28T20:44:43.275Z,51.63
2022-07-28T20:47:11.307Z,51.53
2022-07-28T20:49:43.310Z,51.60
2022-07-28T20:52:12.692Z,51.54
2022-07-28T20:54:49.464Z,51.48
2022-07-28T20:57:21.673Z,51.73
2022-07-28T20:59:51.295Z,51.57
2022-07-28T21:02:19.287Z,51.43
2022-07-28T21:04:50.154Z,51.78
2022-07-28T21:07:59.534Z,51.78
2022-07-28T21:10:08.178Z,51.76
2022-07-28T21:12:37.114Z,51.73
2022-07-28T21:15:04.988Z,51.91
2022-07-28T21:17:32.703Z,51.87
2022-07-28T21:20:00.368Z,51.94
2022-07-28T21:22:29.683Z,52.05
2022-07-28T21:24:57.644Z,51.91
2022-07-28T21:27:25.290Z,51.91
2022-07-28T21:32:21.096Z,52.23
2022-07-28T21:34:48.785Z,52.16
2022-07-28T21:37:16.403Z,52.10
2022-07-28T21:39:45.667Z,52.28
2022-07-28T21:42:13.341Z,52.30
2022-07-28T21:44:40.994Z,52.32
2022-07-28T21:47:09.066Z,52.30
2022-07-28T21:49:36.713Z,52.50
2022-07-28T21:52:04.571Z,52.54
2022-07-28T21:54:32.285Z,52.42
2022-07-28T21:57:01.323Z,52.61
2022-07-28T21:59:28.980Z,52.25
2022-07-28T22:01:56.702Z,52.56
2022-07-28T22:04:24.483Z,52.61
2022-07-28T22:06:53.530Z,52.33
2022-07-28T22:09:21.190Z,52.57
2022-07-28T22:11:48.820Z,52.66
2022-07-28T22:14:18.307Z,52.73
2022-07-28T22:16:46.351Z,52.56
2022-07-28T22:19:14.164Z,53.00
2022-07-28T22:21:41.803Z,52.46
2022-07-28T22:24:12.800Z,52.82
2022-07-28T22:26:40.697Z,52.69
2022-07-28T22:29:08.600Z,52.73
2022-07-28T22:31:37.993Z,52.84
2022-07-28T22:34:05.922Z,52.79
2022-07-28T22:36:33.856Z,52.47
2022-07-28T22:39:01.789Z,52.99
2022-07-28T22:41:29.938Z,52.82
2022-07-28T22:43:57.852Z,52.98
2022-07-28T22:46:25.886Z,52.88
2022-07-28T22:48:55.422Z,53.06
2022-07-28T22:51:23.410Z,53.18
2022-07-28T22:53:51.337Z,53.31
2022-07-28T22:56:19.368Z,53.51
2022-07-28T22:58:47.353Z,53.57
2022-07-28T23:01:15.789Z,53.61
2022-07-28T23:03:46.215Z,53.66
2022-07-28T23:06:16.661Z,53.84
2022-07-28T23:08:44.673Z,53.93
2022-07-28T23:11:12.621Z,54.11
2022-07-28T23:13:40.919Z,54.04
2022-07-28T23:16:09.143Z,53.98
2022-07-28T23:18:39.332Z,54.09
2022-07-28T23:21:07.273Z,54.21
2022-07-28T23:23:36.627Z,54.20
2022-07-28T23:26:04.540Z,54.46
2022-07-28T23:28:32.500Z,54.54
2022-07-28T23:31:00.423Z,54.76
2022-07-28T23:33:56.306Z,54.66
2022-07-28T23:36:25.957Z,54.74
2022-07-28T23:38:56.535Z,54.78
2022-07-28T23:41:24.453Z,54.62
2022-07-28T23:43:52.387Z,55.14
2022-07-28T23:46:20.367Z,54.73
2022-07-28T23:48:49.386Z,54.99
2022-07-28T23:51:17.360Z,55.14
2022-07-28T23:53:45.311Z,54.83
2022-07-28T23:56:14.994Z,54.64
2022-07-28T23:58:42.973Z,54.79
